sensor_id;sensor_type;location;lat;lon;timestamp;temperature;humidity
76996;DHT22;65929;49.062;10.338;2024-02-21T00:00:56;5.50;80.70
76996;DHT22;65929;49.062;10.338;2024-02-21T00:01:56;5.50;80.70
76996;DHT22;65929;49.062;10.338;2024-02-21T00:02:57;5.50;80.90
76996;DHT22;65929;49.062;10.338;2024-02-21T00:04:00;5.50;80.90
76996;DHT22;65929;49.062;10.338;2024-02-21T00:05:02;5.40;81.00
76996;DHT22;65929;49.062;10.338;2024-02-21T00:06:04;5.40;81.00
76996;DHT22;65929;49.062;10.338;2024-02-21T00:07:05;5.40;81.10
76996;DHT22;65929;49.062;10.338;2024-02-21T00:08:06;5.30;81.50
76996;DHT22;65929;49.062;10.338;2024-02-21T00:09:07;5.30;81.40
76996;DHT22;65929;49.062;10.338;2024-02-21T00:10:10;5.30;81.40
76996;DHT22;65929;49.062;10.338;2024-02-21T00:11:11;5.30;81.50
76996;DHT22;65929;49.062;10.338;2024-02-21T00:12:12;5.30;81.50
76996;DHT22;65929;49.062;10.338;2024-02-21T00:13:14;5.30;81.50
76996;DHT22;65929;49.062;10.338;2024-02-21T00:14:15;5.30;81.80
76996;DHT22;65929;49.062;10.338;2024-02-21T00:15:16;5.30;81.70
76996;DHT22;65929;49.062;10.338;2024-02-21T00:16:17;5.30;81.80
76996;DHT22;65929;49.062;10.338;2024-02-21T00:17:18;5.30;81.80
76996;DHT22;65929;49.062;10.338;2024-02-21T00:18:19;5.30;81.90
76996;DHT22;65929;49.062;10.338;2024-02-21T00:19:20;5.30;81.90
76996;DHT22;65929;49.062;10.338;2024-02-21T00:20:23;5.30;81.90
76996;DHT22;65929;49.062;10.338;2024-02-21T00:21:23;5.30;81.90
76996;DHT22;65929;49.062;10.338;2024-02-21T00:22:24;5.30;81.90
76996;DHT22;65929;49.062;10.338;2024-02-21T00:23:29;5.30;82.00
76996;DHT22;65929;49.062;10.338;2024-02-21T00:24:30;5.30;81.90
76996;DHT22;65929;49.062;10.338;2024-02-21T00:25:31;5.30;81.80
76996;DHT22;65929;49.062;10.338;2024-02-21T00:26:32;5.30;81.80
76996;DHT22;65929;49.062;10.338;2024-02-21T00:27:32;5.30;81.80
76996;DHT22;65929;49.062;10.338;2024-02-21T00:28:33;5.30;82.00
76996;DHT22;65929;49.062;10.338;2024-02-21T00:29:34;5.30;81.80
76996;DHT22;65929;49.062;10.338;2024-02-21T00:30:35;5.30;81.90
76996;DHT22;65929;49.062;10.338;2024-02-21T00:31:38;5.30;81.90
76996;DHT22;65929;49.062;10.338;2024-02-21T00:32:39;5.30;81.90
76996;DHT22;65929;49.062;10.338;2024-02-21T00:33:40;5.30;81.80
76996;DHT22;65929;49.062;10.338;2024-02-21T00:34:42;5.30;81.70
76996;DHT22;65929;49.062;10.338;2024-02-21T00:35:45;5.30;81.70
76996;DHT22;65929;49.062;10.338;2024-02-21T00:36:46;5.30;81.50
76996;DHT22;65929;49.062;10.338;2024-02-21T00:37:49;5.30;81.50
76996;DHT22;65929;49.062;10.338;2024-02-21T00:38:50;5.30;81.50
76996;DHT22;65929;49.062;10.338;2024-02-21T00:39:51;5.30;81.70
76996;DHT22;65929;49.062;10.338;2024-02-21T00:40:52;5.30;81.50
76996;DHT22;65929;49.062;10.338;2024-02-21T00:41:52;5.30;81.70
76996;DHT22;65929;49.062;10.338;2024-02-21T00:42:54;5.30;81.90
76996;DHT22;65929;49.062;10.338;2024-02-21T00:43:54;5.30;82.00
76996;DHT22;65929;49.062;10.338;2024-02-21T00:44:55;5.30;81.70
76996;DHT22;65929;49.062;10.338;2024-02-21T00:45:56;5.30;81.50
76996;DHT22;65929;49.062;10.338;2024-02-21T00:46:57;5.30;81.50
76996;DHT22;65929;49.062;10.338;2024-02-21T00:47:58;5.30;81.50
76996;DHT22;65929;49.062;10.338;2024-02-21T00:48:59;5.30;81.50
76996;DHT22;65929;49.062;10.338;2024-02-21T00:50:00;5.30;81.50
76996;DHT22;65929;49.062;10.338;2024-02-21T00:51:03;5.30;81.70
76996;DHT22;65929;49.062;10.338;2024-02-21T00:52:04;5.30;81.50
76996;DHT22;65929;49.062;10.338;2024-02-21T00:53:05;5.30;81.70
76996;DHT22;65929;49.062;10.338;2024-02-21T00:54:05;5.30;81.70
76996;DHT22;65929;49.062;10.338;2024-02-21T00:55:08;5.30;81.70
76996;DHT22;65929;49.062;10.338;2024-02-21T00:56:09;5.30;81.70
76996;DHT22;65929;49.062;10.338;2024-02-21T00:57:10;5.30;81.70
76996;DHT22;65929;49.062;10.338;2024-02-21T00:58:11;5.30;81.80
76996;DHT22;65929;49.062;10.338;2024-02-21T00:59:12;5.30;81.90
76996;DHT22;65929;49.062;10.338;2024-02-21T01:00:14;5.30;81.80
76996;DHT22;65929;49.062;10.338;2024-02-21T01:01:21;5.20;82.00
76996;DHT22;65929;49.062;10.338;2024-02-21T01:02:23;5.30;82.00
76996;DHT22;65929;49.062;10.338;2024-02-21T01:03:24;5.30;81.80
76996;DHT22;65929;49.062;10.338;2024-02-21T01:04:24;5.30;81.90
76996;DHT22;65929;49.062;10.338;2024-02-21T01:05:25;5.20;81.80
76996;DHT22;65929;49.062;10.338;2024-02-21T01:06:29;5.30;81.70
76996;DHT22;65929;49.062;10.338;2024-02-21T01:07:30;5.30;81.80
76996;DHT22;65929;49.062;10.338;2024-02-21T01:08:31;5.20;81.80
76996;DHT22;65929;49.062;10.338;2024-02-21T01:09:32;5.20;82.00
76996;DHT22;65929;49.062;10.338;2024-02-21T01:10:32;5.20;81.90
76996;DHT22;65929;49.062;10.338;2024-02-21T01:11:33;5.20;82.00
76996;DHT22;65929;49.062;10.338;2024-02-21T01:12:34;5.20;82.00
76996;DHT22;65929;49.062;10.338;2024-02-21T01:13:35;5.20;82.00
76996;DHT22;65929;49.062;10.338;2024-02-21T01:14:36;5.20;82.00
76996;DHT22;65929;49.062;10.338;2024-02-21T01:15:37;5.20;82.00
76996;DHT22;65929;49.062;10.338;2024-02-21T01:16:38;5.20;81.90
76996;DHT22;65929;49.062;10.338;2024-02-21T01:17:39;5.20;81.90
76996;DHT22;65929;49.062;10.338;2024-02-21T01:18:41;5.20;81.90
76996;DHT22;65929;49.062;10.338;2024-02-21T01:19:42;5.20;82.10
76996;DHT22;65929;49.062;10.338;2024-02-21T01:20:42;5.20;81.90
76996;DHT22;65929;49.062;10.338;2024-02-21T01:21:45;5.20;82.10
76996;DHT22;65929;49.062;10.338;2024-02-21T01:22:46;5.20;82.10
76996;DHT22;65929;49.062;10.338;2024-02-21T01:23:47;5.20;82.10
76996;DHT22;65929;49.062;10.338;2024-02-21T01:24:48;5.20;82.10
76996;DHT22;65929;49.062;10.338;2024-02-21T01:25:48;5.20;82.10
76996;DHT22;65929;49.062;10.338;2024-02-21T01:26:49;5.20;82.10
76996;DHT22;65929;49.062;10.338;2024-02-21T01:27:50;5.20;82.00
76996;DHT22;65929;49.062;10.338;2024-02-21T01:28:52;5.10;82.10
76996;DHT22;65929;49.062;10.338;2024-02-21T01:29:53;5.10;82.30
76996;DHT22;65929;49.062;10.338;2024-02-21T01:30:54;5.10;82.40
76996;DHT22;65929;49.062;10.338;2024-02-21T01:31:55;5.10;82.50
76996;DHT22;65929;49.062;10.338;2024-02-21T01:32:56;5.10;82.40
76996;DHT22;65929;49.062;10.338;2024-02-21T01:33:57;5.10;82.40
76996;DHT22;65929;49.062;10.338;2024-02-21T01:34:58;5.10;82.20
76996;DHT22;65929;49.062;10.338;2024-02-21T01:36:00;5.10;82.40
76996;DHT22;65929;49.062;10.338;2024-02-21T01:37:02;5.10;82.30
76996;DHT22;65929;49.062;10.338;2024-02-21T01:38:05;5.10;82.30
76996;DHT22;65929;49.062;10.338;2024-02-21T01:39:05;5.10;82.40
76996;DHT22;65929;49.062;10.338;2024-02-21T01:40:08;5.10;82.30
76996;DHT22;65929;49.062;10.338;2024-02-21T01:41:09;5.10;82.30
76996;DHT22;65929;49.062;10.338;2024-02-21T01:42:09;5.20;82.00
76996;DHT22;65929;49.062;10.338;2024-02-21T01:43:17;5.20;81.90
76996;DHT22;65929;49.062;10.338;2024-02-21T01:44:21;5.10;82.00
76996;DHT22;65929;49.062;10.338;2024-02-21T01:45:22;5.20;81.80
76996;DHT22;65929;49.062;10.338;2024-02-21T01:46:23;5.20;81.70
76996;DHT22;65929;49.062;10.338;2024-02-21T01:47:28;5.20;81.70
76996;DHT22;65929;49.062;10.338;2024-02-21T01:48:30;5.30;81.40
76996;DHT22;65929;49.062;10.338;2024-02-21T01:49:31;5.30;81.50
76996;DHT22;65929;49.062;10.338;2024-02-21T01:50:32;5.30;81.50
76996;DHT22;65929;49.062;10.338;2024-02-21T01:51:33;5.30;81.30
76996;DHT22;65929;49.062;10.338;2024-02-21T01:52:35;5.30;81.20
76996;DHT22;65929;49.062;10.338;2024-02-21T01:53:38;5.30;81.40
76996;DHT22;65929;49.062;10.338;2024-02-21T01:54:41;5.30;81.10
76996;DHT22;65929;49.062;10.338;2024-02-21T01:55:43;5.30;81.20
76996;DHT22;65929;49.062;10.338;2024-02-21T01:56:44;5.30;80.90
76996;DHT22;65929;49.062;10.338;2024-02-21T01:57:45;5.30;80.80
76996;DHT22;65929;49.062;10.338;2024-02-21T01:58:48;5.30;80.90
76996;DHT22;65929;49.062;10.338;2024-02-21T01:59:49;5.30;81.10
76996;DHT22;65929;49.062;10.338;2024-02-21T02:00:50;5.30;81.20
76996;DHT22;65929;49.062;10.338;2024-02-21T02:01:51;5.30;81.10
76996;DHT22;65929;49.062;10.338;2024-02-21T02:02:54;5.30;81.00
76996;DHT22;65929;49.062;10.338;2024-02-21T02:03:55;5.30;80.90
76996;DHT22;65929;49.062;10.338;2024-02-21T02:04:56;5.30;80.90
76996;DHT22;65929;49.062;10.338;2024-02-21T02:05:57;5.30;81.10
76996;DHT22;65929;49.062;10.338;2024-02-21T02:07:00;5.30;81.10
76996;DHT22;65929;49.062;10.338;2024-02-21T02:08:03;5.30;81.00
76996;DHT22;65929;49.062;10.338;2024-02-21T02:09:04;5.30;81.00
76996;DHT22;65929;49.062;10.338;2024-02-21T02:10:07;5.30;80.80
76996;DHT22;65929;49.062;10.338;2024-02-21T02:11:08;5.30;80.70
76996;DHT22;65929;49.062;10.338;2024-02-21T02:12:09;5.30;81.00
76996;DHT22;65929;49.062;10.338;2024-02-21T02:13:10;5.30;80.90
76996;DHT22;65929;49.062;10.338;2024-02-21T02:14:11;5.30;80.70
76996;DHT22;65929;49.062;10.338;2024-02-21T02:15:12;5.30;80.70
76996;DHT22;65929;49.062;10.338;2024-02-21T02:16:13;5.30;80.90
76996;DHT22;65929;49.062;10.338;2024-02-21T02:17:14;5.30;80.70
76996;DHT22;65929;49.062;10.338;2024-02-21T02:18:16;5.30;80.70
76996;DHT22;65929;49.062;10.338;2024-02-21T02:19:17;5.30;80.70
76996;DHT22;65929;49.062;10.338;2024-02-21T02:20:18;5.30;80.70
76996;DHT22;65929;49.062;10.338;2024-02-21T02:21:23;5.30;80.70
76996;DHT22;65929;49.062;10.338;2024-02-21T02:22:28;5.30;80.70
76996;DHT22;65929;49.062;10.338;2024-02-21T02:23:32;5.30;80.70
76996;DHT22;65929;49.062;10.338;2024-02-21T02:24:33;5.30;80.50
76996;DHT22;65929;49.062;10.338;2024-02-21T02:25:34;5.30;80.50
76996;DHT22;65929;49.062;10.338;2024-02-21T02:26:35;5.30;80.50
76996;DHT22;65929;49.062;10.338;2024-02-21T02:27:41;5.30;80.50
76996;DHT22;65929;49.062;10.338;2024-02-21T02:28:44;5.30;80.80
76996;DHT22;65929;49.062;10.338;2024-02-21T02:29:45;5.30;80.80
76996;DHT22;65929;49.062;10.338;2024-02-21T02:30:46;5.20;81.00
76996;DHT22;65929;49.062;10.338;2024-02-21T02:31:48;5.20;81.00
76996;DHT22;65929;49.062;10.338;2024-02-21T02:32:49;5.20;80.90
76996;DHT22;65929;49.062;10.338;2024-02-21T02:33:50;5.20;80.90
76996;DHT22;65929;49.062;10.338;2024-02-21T02:34:51;5.20;80.90
76996;DHT22;65929;49.062;10.338;2024-02-21T02:35:52;5.20;81.00
76996;DHT22;65929;49.062;10.338;2024-02-21T02:36:53;5.10;81.10
76996;DHT22;65929;49.062;10.338;2024-02-21T02:37:55;5.10;81.10
76996;DHT22;65929;49.062;10.338;2024-02-21T02:38:57;5.10;81.00
76996;DHT22;65929;49.062;10.338;2024-02-21T02:39:58;5.10;81.10
76996;DHT22;65929;49.062;10.338;2024-02-21T02:41:02;5.10;81.00
76996;DHT22;65929;49.062;10.338;2024-02-21T02:42:03;5.10;81.10
76996;DHT22;65929;49.062;10.338;2024-02-21T02:43:04;5.20;81.30
76996;DHT22;65929;49.062;10.338;2024-02-21T02:44:05;5.10;81.40
76996;DHT22;65929;49.062;10.338;2024-02-21T02:45:07;5.10;81.50
76996;DHT22;65929;49.062;10.338;2024-02-21T02:46:08;5.10;81.50
76996;DHT22;65929;49.062;10.338;2024-02-21T02:47:09;5.10;81.50
76996;DHT22;65929;49.062;10.338;2024-02-21T02:48:10;5.10;81.50
76996;DHT22;65929;49.062;10.338;2024-02-21T02:49:11;5.10;81.50
76996;DHT22;65929;49.062;10.338;2024-02-21T02:50:12;5.10;81.50
76996;DHT22;65929;49.062;10.338;2024-02-21T02:51:13;5.10;81.30
76996;DHT22;65929;49.062;10.338;2024-02-21T02:52:14;5.10;81.50
76996;DHT22;65929;49.062;10.338;2024-02-21T02:53:15;5.00;81.60
76996;DHT22;65929;49.062;10.338;2024-02-21T02:54:17;5.00;81.50
76996;DHT22;65929;49.062;10.338;2024-02-21T02:55:19;5.00;81.60
76996;DHT22;65929;49.062;10.338;2024-02-21T02:56:20;5.00;81.70
76996;DHT22;65929;49.062;10.338;2024-02-21T02:57:21;5.00;81.70
76996;DHT22;65929;49.062;10.338;2024-02-21T02:58:22;5.00;81.60
76996;DHT22;65929;49.062;10.338;2024-02-21T02:59:23;5.00;81.70
76996;DHT22;65929;49.062;10.338;2024-02-21T03:00:24;5.00;81.70
76996;DHT22;65929;49.062;10.338;2024-02-21T03:01:25;5.00;81.70
76996;DHT22;65929;49.062;10.338;2024-02-21T03:02:26;5.00;81.60
76996;DHT22;65929;49.062;10.338;2024-02-21T03:03:28;5.00;81.90
76996;DHT22;65929;49.062;10.338;2024-02-21T03:04:29;5.00;81.70
76996;DHT22;65929;49.062;10.338;2024-02-21T03:05:29;5.00;81.60
76996;DHT22;65929;49.062;10.338;2024-02-21T03:06:30;5.00;81.70
76996;DHT22;65929;49.062;10.338;2024-02-21T03:07:31;5.00;81.80
76996;DHT22;65929;49.062;10.338;2024-02-21T03:08:32;5.00;81.80
76996;DHT22;65929;49.062;10.338;2024-02-21T03:09:34;5.00;82.00
76996;DHT22;65929;49.062;10.338;2024-02-21T03:10:35;5.00;82.00
76996;DHT22;65929;49.062;10.338;2024-02-21T03:11:37;5.00;82.00
76996;DHT22;65929;49.062;10.338;2024-02-21T03:12:39;5.00;81.90
76996;DHT22;65929;49.062;10.338;2024-02-21T03:13:40;5.00;82.10
76996;DHT22;65929;49.062;10.338;2024-02-21T03:14:41;5.00;82.00
76996;DHT22;65929;49.062;10.338;2024-02-21T03:15:42;5.00;81.80
76996;DHT22;65929;49.062;10.338;2024-02-21T03:16:43;5.00;81.80
76996;DHT22;65929;49.062;10.338;2024-02-21T03:17:44;5.00;81.90
76996;DHT22;65929;49.062;10.338;2024-02-21T03:18:44;5.00;82.00
76996;DHT22;65929;49.062;10.338;2024-02-21T03:19:45;5.00;81.80
76996;DHT22;65929;49.062;10.338;2024-02-21T03:20:46;5.00;81.70
76996;DHT22;65929;49.062;10.338;2024-02-21T03:21:47;5.00;81.70
76996;DHT22;65929;49.062;10.338;2024-02-21T03:22:48;5.00;81.90
76996;DHT22;65929;49.062;10.338;2024-02-21T03:23:49;5.00;82.00
76996;DHT22;65929;49.062;10.338;2024-02-21T03:24:52;5.00;81.80
76996;DHT22;65929;49.062;10.338;2024-02-21T03:25:52;5.00;81.90
76996;DHT22;65929;49.062;10.338;2024-02-21T03:26:53;5.00;81.60
76996;DHT22;65929;49.062;10.338;2024-02-21T03:27:54;5.00;81.60
76996;DHT22;65929;49.062;10.338;2024-02-21T03:28:55;5.00;81.80
76996;DHT22;65929;49.062;10.338;2024-02-21T03:29:56;5.00;81.50
76996;DHT22;65929;49.062;10.338;2024-02-21T03:30:57;5.00;81.80
76996;DHT22;65929;49.062;10.338;2024-02-21T03:31:57;5.00;81.80
76996;DHT22;65929;49.062;10.338;2024-02-21T03:32:58;5.00;81.60
76996;DHT22;65929;49.062;10.338;2024-02-21T03:33:59;5.00;81.80
76996;DHT22;65929;49.062;10.338;2024-02-21T03:35:00;5.00;81.70
76996;DHT22;65929;49.062;10.338;2024-02-21T03:36:01;5.00;81.50
76996;DHT22;65929;49.062;10.338;2024-02-21T03:37:02;5.00;81.50
76996;DHT22;65929;49.062;10.338;2024-02-21T03:38:04;5.00;81.50
76996;DHT22;65929;49.062;10.338;2024-02-21T03:39:04;5.00;81.30
76996;DHT22;65929;49.062;10.338;2024-02-21T03:40:11;5.00;81.30
76996;DHT22;65929;49.062;10.338;2024-02-21T03:41:12;5.00;81.10
76996;DHT22;65929;49.062;10.338;2024-02-21T03:42:13;5.00;81.20
76996;DHT22;65929;49.062;10.338;2024-02-21T03:43:14;5.00;81.00
76996;DHT22;65929;49.062;10.338;2024-02-21T03:44:15;5.00;80.70
76996;DHT22;65929;49.062;10.338;2024-02-21T03:45:16;5.00;80.80
76996;DHT22;65929;49.062;10.338;2024-02-21T03:46:17;5.00;81.10
76996;DHT22;65929;49.062;10.338;2024-02-21T03:47:18;5.00;80.40
76996;DHT22;65929;49.062;10.338;2024-02-21T03:48:19;5.00;80.40
76996;DHT22;65929;49.062;10.338;2024-02-21T03:49:19;5.00;80.40
76996;DHT22;65929;49.062;10.338;2024-02-21T03:50:20;5.00;80.40
76996;DHT22;65929;49.062;10.338;2024-02-21T03:51:21;5.10;80.50
76996;DHT22;65929;49.062;10.338;2024-02-21T03:52:22;5.10;80.50
76996;DHT22;65929;49.062;10.338;2024-02-21T03:53:23;5.10;80.70
76996;DHT22;65929;49.062;10.338;2024-02-21T03:54:24;5.10;81.30
76996;DHT22;65929;49.062;10.338;2024-02-21T03:55:26;5.00;81.20
76996;DHT22;65929;49.062;10.338;2024-02-21T03:56:27;5.10;81.20
76996;DHT22;65929;49.062;10.338;2024-02-21T03:57:28;5.10;80.80
76996;DHT22;65929;49.062;10.338;2024-02-21T03:58:29;5.10;81.00
76996;DHT22;65929;49.062;10.338;2024-02-21T03:59:30;5.10;81.10
76996;DHT22;65929;49.062;10.338;2024-02-21T04:00:31;5.00;81.50
76996;DHT22;65929;49.062;10.338;2024-02-21T04:01:32;5.00;81.50
76996;DHT22;65929;49.062;10.338;2024-02-21T04:02:32;5.00;81.60
76996;DHT22;65929;49.062;10.338;2024-02-21T04:03:33;5.00;82.00
76996;DHT22;65929;49.062;10.338;2024-02-21T04:04:35;5.00;82.10
76996;DHT22;65929;49.062;10.338;2024-02-21T04:05:38;5.00;82.20
76996;DHT22;65929;49.062;10.338;2024-02-21T04:06:46;5.00;82.10
76996;DHT22;65929;49.062;10.338;2024-02-21T04:07:47;5.00;82.50
76996;DHT22;65929;49.062;10.338;2024-02-21T04:08:48;4.90;82.70
76996;DHT22;65929;49.062;10.338;2024-02-21T04:09:49;4.90;82.90
76996;DHT22;65929;49.062;10.338;2024-02-21T04:10:51;4.90;82.90
76996;DHT22;65929;49.062;10.338;2024-02-21T04:11:52;4.90;83.10
76996;DHT22;65929;49.062;10.338;2024-02-21T04:12:53;4.90;83.20
76996;DHT22;65929;49.062;10.338;2024-02-21T04:13:54;4.90;83.40
76996;DHT22;65929;49.062;10.338;2024-02-21T04:14:55;4.90;83.10
76996;DHT22;65929;49.062;10.338;2024-02-21T04:15:56;4.90;83.20
76996;DHT22;65929;49.062;10.338;2024-02-21T04:16:57;4.90;82.90
76996;DHT22;65929;49.062;10.338;2024-02-21T04:17:58;4.90;83.30
76996;DHT22;65929;49.062;10.338;2024-02-21T04:18:59;4.90;83.50
76996;DHT22;65929;49.062;10.338;2024-02-21T04:20:02;4.90;83.80
76996;DHT22;65929;49.062;10.338;2024-02-21T04:21:05;4.90;83.80
76996;DHT22;65929;49.062;10.338;2024-02-21T04:22:06;4.90;83.40
76996;DHT22;65929;49.062;10.338;2024-02-21T04:23:07;4.90;83.70
76996;DHT22;65929;49.062;10.338;2024-02-21T04:24:08;4.90;83.70
76996;DHT22;65929;49.062;10.338;2024-02-21T04:25:09;4.90;83.80
76996;DHT22;65929;49.062;10.338;2024-02-21T04:26:11;4.90;83.80
76996;DHT22;65929;49.062;10.338;2024-02-21T04:27:12;4.90;83.70
76996;DHT22;65929;49.062;10.338;2024-02-21T04:28:13;4.90;83.50
76996;DHT22;65929;49.062;10.338;2024-02-21T04:29:14;4.90;83.40
76996;DHT22;65929;49.062;10.338;2024-02-21T04:30:15;4.90;83.70
76996;DHT22;65929;49.062;10.338;2024-02-21T04:31:16;4.90;83.60
76996;DHT22;65929;49.062;10.338;2024-02-21T04:32:17;4.80;83.70
76996;DHT22;65929;49.062;10.338;2024-02-21T04:33:18;4.80;83.80
76996;DHT22;65929;49.062;10.338;2024-02-21T04:34:19;4.80;83.70
76996;DHT22;65929;49.062;10.338;2024-02-21T04:35:20;4.80;83.80
76996;DHT22;65929;49.062;10.338;2024-02-21T04:36:21;4.80;83.90
76996;DHT22;65929;49.062;10.338;2024-02-21T04:37:21;4.70;84.00
76996;DHT22;65929;49.062;10.338;2024-02-21T04:38:22;4.70;83.90
76996;DHT22;65929;49.062;10.338;2024-02-21T04:39:23;4.70;84.00
76996;DHT22;65929;49.062;10.338;2024-02-21T04:40:24;4.70;83.90
76996;DHT22;65929;49.062;10.338;2024-02-21T04:41:26;4.70;83.80
76996;DHT22;65929;49.062;10.338;2024-02-21T04:42:27;4.70;83.90
76996;DHT22;65929;49.062;10.338;2024-02-21T04:43:28;4.70;84.10
76996;DHT22;65929;49.062;10.338;2024-02-21T04:44:29;4.70;84.10
76996;DHT22;65929;49.062;10.338;2024-02-21T04:45:30;4.60;84.20
76996;DHT22;65929;49.062;10.338;2024-02-21T04:46:31;4.60;84.40
76996;DHT22;65929;49.062;10.338;2024-02-21T04:47:32;4.50;84.30
76996;DHT22;65929;49.062;10.338;2024-02-21T04:48:33;4.50;84.30
76996;DHT22;65929;49.062;10.338;2024-02-21T04:49:34;4.50;84.30
76996;DHT22;65929;49.062;10.338;2024-02-21T04:50:35;4.50;84.30
76996;DHT22;65929;49.062;10.338;2024-02-21T04:51:36;4.50;84.40
76996;DHT22;65929;49.062;10.338;2024-02-21T04:52:37;4.50;84.40
76996;DHT22;65929;49.062;10.338;2024-02-21T04:53:38;4.50;84.60
76996;DHT22;65929;49.062;10.338;2024-02-21T04:54:39;4.40;84.50
76996;DHT22;65929;49.062;10.338;2024-02-21T04:55:40;4.40;84.50
76996;DHT22;65929;49.062;10.338;2024-02-21T04:56:42;4.40;84.60
76996;DHT22;65929;49.062;10.338;2024-02-21T04:57:43;4.40;84.60
76996;DHT22;65929;49.062;10.338;2024-02-21T04:58:44;4.40;84.60
76996;DHT22;65929;49.062;10.338;2024-02-21T04:59:45;4.30;84.70
76996;DHT22;65929;49.062;10.338;2024-02-21T05:00:48;4.30;84.90
76996;DHT22;65929;49.062;10.338;2024-02-21T05:01:49;4.30;84.90
76996;DHT22;65929;49.062;10.338;2024-02-21T05:02:50;4.30;84.90
76996;DHT22;65929;49.062;10.338;2024-02-21T05:03:51;4.30;84.80
76996;DHT22;65929;49.062;10.338;2024-02-21T05:04:52;4.30;85.10
76996;DHT22;65929;49.062;10.338;2024-02-21T05:05:53;4.30;85.10
76996;DHT22;65929;49.062;10.338;2024-02-21T05:06:54;4.40;85.10
76996;DHT22;65929;49.062;10.338;2024-02-21T05:07:55;4.40;85.10
76996;DHT22;65929;49.062;10.338;2024-02-21T05:08:56;4.40;85.20
76996;DHT22;65929;49.062;10.338;2024-02-21T05:09:58;4.40;85.20
76996;DHT22;65929;49.062;10.338;2024-02-21T05:10:59;4.40;85.10
76996;DHT22;65929;49.062;10.338;2024-02-21T05:12:01;4.40;85.10
76996;DHT22;65929;49.062;10.338;2024-02-21T05:13:03;4.40;84.80
76996;DHT22;65929;49.062;10.338;2024-02-21T05:14:04;4.40;84.60
76996;DHT22;65929;49.062;10.338;2024-02-21T05:15:06;4.40;84.70
76996;DHT22;65929;49.062;10.338;2024-02-21T05:16:07;4.40;84.60
76996;DHT22;65929;49.062;10.338;2024-02-21T05:17:08;4.40;84.40
76996;DHT22;65929;49.062;10.338;2024-02-21T05:18:09;4.50;84.40
76996;DHT22;65929;49.062;10.338;2024-02-21T05:19:10;4.50;84.40
76996;DHT22;65929;49.062;10.338;2024-02-21T05:20:11;4.40;84.20
76996;DHT22;65929;49.062;10.338;2024-02-21T05:21:12;4.50;84.20
76996;DHT22;65929;49.062;10.338;2024-02-21T05:22:13;4.50;84.00
76996;DHT22;65929;49.062;10.338;2024-02-21T05:23:14;4.50;84.10
76996;DHT22;65929;49.062;10.338;2024-02-21T05:24:15;4.50;84.10
76996;DHT22;65929;49.062;10.338;2024-02-21T05:25:16;4.50;84.00
76996;DHT22;65929;49.062;10.338;2024-02-21T05:26:20;4.50;83.90
76996;DHT22;65929;49.062;10.338;2024-02-21T05:27:23;4.50;84.00
76996;DHT22;65929;49.062;10.338;2024-02-21T05:28:24;4.50;83.80
76996;DHT22;65929;49.062;10.338;2024-02-21T05:29:25;4.50;83.70
76996;DHT22;65929;49.062;10.338;2024-02-21T05:30:26;4.50;83.70
76996;DHT22;65929;49.062;10.338;2024-02-21T05:31:43;4.50;83.60
76996;DHT22;65929;49.062;10.338;2024-02-21T05:32:55;4.50;83.50
76996;DHT22;65929;49.062;10.338;2024-02-21T05:33:55;4.50;83.50
76996;DHT22;65929;49.062;10.338;2024-02-21T05:34:56;4.50;83.30
76996;DHT22;65929;49.062;10.338;2024-02-21T05:35:58;4.50;83.40
76996;DHT22;65929;49.062;10.338;2024-02-21T05:36:59;4.50;83.50
76996;DHT22;65929;49.062;10.338;2024-02-21T05:38:01;4.50;83.60
76996;DHT22;65929;49.062;10.338;2024-02-21T05:39:06;4.50;83.80
76996;DHT22;65929;49.062;10.338;2024-02-21T05:40:07;4.50;83.80
76996;DHT22;65929;49.062;10.338;2024-02-21T05:41:09;4.50;83.70
76996;DHT22;65929;49.062;10.338;2024-02-21T05:42:09;4.50;83.60
76996;DHT22;65929;49.062;10.338;2024-02-21T05:43:12;4.50;83.60
76996;DHT22;65929;49.062;10.338;2024-02-21T05:44:13;4.50;83.60
76996;DHT22;65929;49.062;10.338;2024-02-21T05:45:14;4.50;83.80
76996;DHT22;65929;49.062;10.338;2024-02-21T05:46:19;4.50;83.90
76996;DHT22;65929;49.062;10.338;2024-02-21T05:47:20;4.50;83.90
76996;DHT22;65929;49.062;10.338;2024-02-21T05:48:22;4.40;84.00
76996;DHT22;65929;49.062;10.338;2024-02-21T05:49:23;4.40;84.10
76996;DHT22;65929;49.062;10.338;2024-02-21T05:50:24;4.40;84.20
76996;DHT22;65929;49.062;10.338;2024-02-21T05:51:25;4.40;84.30
76996;DHT22;65929;49.062;10.338;2024-02-21T05:52:26;4.40;84.20
76996;DHT22;65929;49.062;10.338;2024-02-21T05:53:26;4.30;84.30
76996;DHT22;65929;49.062;10.338;2024-02-21T05:54:27;4.30;84.30
76996;DHT22;65929;49.062;10.338;2024-02-21T05:55:28;4.30;84.40
76996;DHT22;65929;49.062;10.338;2024-02-21T05:56:29;4.30;84.50
76996;DHT22;65929;49.062;10.338;2024-02-21T05:57:30;4.20;84.60
76996;DHT22;65929;49.062;10.338;2024-02-21T05:58:32;4.20;84.70
76996;DHT22;65929;49.062;10.338;2024-02-21T05:59:33;4.20;84.90
76996;DHT22;65929;49.062;10.338;2024-02-21T06:00:37;4.20;85.00
76996;DHT22;65929;49.062;10.338;2024-02-21T06:01:38;4.10;85.00
76996;DHT22;65929;49.062;10.338;2024-02-21T06:02:39;4.10;85.00
76996;DHT22;65929;49.062;10.338;2024-02-21T06:03:40;4.10;85.10
76996;DHT22;65929;49.062;10.338;2024-02-21T06:04:42;4.00;85.20
76996;DHT22;65929;49.062;10.338;2024-02-21T06:05:43;4.00;85.40
76996;DHT22;65929;49.062;10.338;2024-02-21T06:06:44;4.00;85.50
76996;DHT22;65929;49.062;10.338;2024-02-21T06:07:45;4.00;85.50
76996;DHT22;65929;49.062;10.338;2024-02-21T06:08:46;3.90;85.50
76996;DHT22;65929;49.062;10.338;2024-02-21T06:09:47;3.90;85.60
76996;DHT22;65929;49.062;10.338;2024-02-21T06:10:48;3.90;85.80
76996;DHT22;65929;49.062;10.338;2024-02-21T06:11:49;3.90;86.00
76996;DHT22;65929;49.062;10.338;2024-02-21T06:12:50;3.90;86.00
76996;DHT22;65929;49.062;10.338;2024-02-21T06:13:52;3.80;86.10
76996;DHT22;65929;49.062;10.338;2024-02-21T06:14:53;3.80;86.20
76996;DHT22;65929;49.062;10.338;2024-02-21T06:15:54;3.70;86.20
76996;DHT22;65929;49.062;10.338;2024-02-21T06:16:55;3.70;86.40
76996;DHT22;65929;49.062;10.338;2024-02-21T06:17:55;3.70;86.70
76996;DHT22;65929;49.062;10.338;2024-02-21T06:18:56;3.70;86.70
76996;DHT22;65929;49.062;10.338;2024-02-21T06:19:57;3.60;86.80
76996;DHT22;65929;49.062;10.338;2024-02-21T06:20:58;3.60;86.90
76996;DHT22;65929;49.062;10.338;2024-02-21T06:21:59;3.60;87.10
76996;DHT22;65929;49.062;10.338;2024-02-21T06:23:00;3.60;87.10
76996;DHT22;65929;49.062;10.338;2024-02-21T06:24:01;3.60;87.20
76996;DHT22;65929;49.062;10.338;2024-02-21T06:25:02;3.60;87.30
76996;DHT22;65929;49.062;10.338;2024-02-21T06:26:03;3.60;87.30
76996;DHT22;65929;49.062;10.338;2024-02-21T06:27:04;3.60;87.60
76996;DHT22;65929;49.062;10.338;2024-02-21T06:28:06;3.60;87.50